Time;durP1;ratioP1;P1;durP2;ratioP2;P2;SDS_P1;SDS_P2;PMS_P1;PMS_P2;Temp;Humidity;BMP_temperature;BMP_pressure;BME280_temperature;BME280_humidity;BME280_pressure;Samples;Min_cycle;Max_cycle;Signal;HPM_P1;HPM_P2
2022/05/24 00:02:38;;;;;;;2.53;1.17;;;19.10;99.80;;;;;;6996365;28;20040;-81
2022/05/24 00:06:00;;;;;;;3.10;1.10;;;18.90;99.90;;;;;;6996506;28;20043;-79
2022/05/24 00:09:24;;;;;;;3.47;1.30;;;18.90;99.90;;;;;;6997475;28;20056;-81
2022/05/24 00:12:46;;;;;;;3.60;1.15;;;18.80;99.90;;;;;;6997332;28;20047;-80
2022/05/24 00:16:08;;;;;;;4.07;1.10;;;18.80;99.90;;;;;;6998132;28;20048;-79
2022/05/24 00:19:31;;;;;;;3.25;1.23;;;18.90;99.90;;;;;;6980226;28;20028;-80
2022/05/24 00:22:53;;;;;;;3.30;1.33;;;18.80;99.90;;;;;;6974289;28;20071;-80
2022/05/24 00:26:22;;;;;;;;;;;18.90;99.90;;;;;;6997412;28;20048;-80
2022/05/24 00:29:45;;;;;;;3.72;1.00;;;18.80;99.90;;;;;;6982798;28;19927;-81
2022/05/24 00:33:07;;;;;;;4.05;1.20;;;18.80;99.90;;;;;;6996792;28;20052;-79
2022/05/24 00:36:29;;;;;;;4.55;0.98;;;18.80;99.90;;;;;;6996829;28;20059;-81
2022/05/24 00:39:52;;;;;;;2.40;1.00;;;18.80;99.90;;;;;;6996160;28;20045;-80
2022/05/24 00:43:24;;;;;;;3.88;1.10;;;18.80;99.90;;;;;;6996493;28;20075;-81
2022/05/24 00:46:54;;;;;;;4.35;1.20;;;18.80;99.90;;;;;;6980937;28;20051;-81
2022/05/24 00:50:23;;;;;;;3.50;1.00;;;18.70;99.90;;;;;;6995251;28;20155;-81
2022/05/24 00:53:53;;;;;;;3.88;1.23;;;18.70;99.90;;;;;;6995524;28;20044;-80
2022/05/24 00:57:27;;;;;;;3.47;1.10;;;18.60;99.90;;;;;;6996518;28;20048;-79
2022/05/24 01:00:51;;;;;;;3.08;1.20;;;18.50;99.90;;;;;;6995195;28;20060;-80
2022/05/24 01:04:17;;;;;;;4.97;1.20;;;18.30;99.90;;;;;;6995482;28;20501;-80
2022/05/24 01:07:39;;;;;;;2.05;0.90;;;18.30;99.90;;;;;;6996480;28;20048;-80
2022/05/24 01:11:03;;;;;;;2.97;0.98;;;18.30;99.90;;;;;;6996892;28;20049;-80
2022/05/24 01:14:26;;;;;;;1.42;0.70;;;18.20;99.90;;;;;;6996182;28;20049;-81
2022/05/24 01:17:52;;;;;;;2.00;0.68;;;18.30;99.90;;;;;;6993316;28;20044;-80
2022/05/24 01:21:17;;;;;;;1.63;0.60;;;18.30;99.90;;;;;;6995944;28;20052;-81
2022/05/24 01:24:48;;;;;;;2.80;0.90;;;18.30;99.90;;;;;;6980406;28;20059;-81
2022/05/24 01:28:20;;;;;;;2.13;0.65;;;18.30;99.90;;;;;;6996819;28;20052;-80
2022/05/24 01:39:08;;;;;;;1.67;0.40;;;18.20;99.90;;;;;;6996129;28;20049;-81
2022/05/24 01:42:32;;;;;;;1.50;0.50;;;18.20;99.90;;;;;;6995446;28;20057;-81
2022/05/24 01:46:01;;;;;;;1.83;0.50;;;18.10;99.90;;;;;;6995424;28;20045;-81
2022/05/24 01:49:27;;;;;;;0.95;0.40;;;18.10;99.90;;;;;;6995513;28;20413;-80
2022/05/24 01:52:54;;;;;;;1.63;0.60;;;18.10;99.90;;;;;;6996185;28;20045;-80
2022/05/24 01:56:20;;;;;;;4.85;0.80;;;18.10;99.90;;;;;;6993522;28;20497;-79
2022/05/24 01:59:44;;;;;;;1.73;0.50;;;18.10;99.90;;;;;;6995163;28;20045;-79
2022/05/24 02:03:08;;;;;;;1.02;0.38;;;18.20;99.90;;;;;;6994752;28;20051;-81
2022/05/24 02:06:31;;;;;;;1.15;0.40;;;18.20;99.90;;;;;;6993106;28;20402;-80
2022/05/24 02:09:57;;;;;;;2.38;0.50;;;18.30;99.90;;;;;;6999765;28;20041;-79
2022/05/24 02:13:27;;;;;;;1.00;0.50;;;18.30;99.90;;;;;;6999503;28;20053;-81
2022/05/24 02:16:55;;;;;;;1.17;0.50;;;18.30;99.90;;;;;;6999067;28;20052;-79
2022/05/24 02:20:29;;;;;;;3.13;0.52;;;18.30;99.90;;;;;;6998103;28;20045;-79
2022/05/24 02:23:52;;;;;;;1.40;0.70;;;18.30;99.90;;;;;;6999852;28;20052;-80
2022/05/24 02:27:15;;;;;;;1.38;0.45;;;18.30;99.90;;;;;;6999804;28;20497;-80
2022/05/24 02:30:41;;;;;;;1.77;0.57;;;18.30;99.90;;;;;;7000096;28;20436;-78
2022/05/24 02:34:03;;;;;;;1.90;0.45;;;18.30;99.90;;;;;;7015608;28;20059;-80
2022/05/24 02:37:27;;;;;;;1.10;0.40;;;18.30;99.90;;;;;;6997355;28;20064;-79
2022/05/24 02:44:29;;;;;;;3.03;0.60;;;18.30;99.90;;;;;;6998583;28;20048;-80
2022/05/24 02:47:51;;;;;;;1.08;0.50;;;18.20;99.90;;;;;;7001096;28;20490;-79
2022/05/24 02:51:15;;;;;;;1.08;0.50;;;18.20;99.90;;;;;;7000280;28;20044;-79
2022/05/24 02:54:39;;;;;;;0.63;0.28;;;18.20;99.90;;;;;;6998433;28;20044;-78
2022/05/24 02:58:01;;;;;;;0.88;0.40;;;18.20;99.90;;;;;;6985368;28;20053;-79
2022/05/24 03:01:25;;;;;;;;;;;18.10;99.90;;;;;;6999038;28;20049;-79
2022/05/24 03:04:47;;;;;;;1.48;0.60;;;18.10;99.90;;;;;;6998685;28;19928;-78
2022/05/24 03:15:30;;;;;;;2.50;0.60;;;18.10;99.90;;;;;;6998584;28;20056;-79
2022/05/24 03:18:52;;;;;;;1.63;0.40;;;18.10;99.90;;;;;;6998038;28;20044;-79
2022/05/24 03:22:14;;;;;;;2.13;0.70;;;18.00;99.90;;;;;;6999603;28;20052;-79
2022/05/24 03:25:37;;;;;;;1.48;0.40;;;17.90;99.90;;;;;;6996960;28;20055;-79
2022/05/24 03:29:00;;;;;;;;;;;17.80;99.90;;;;;;6999837;28;20056;-79
2022/05/24 03:32:23;;;;;;;3.38;0.80;;;17.70;99.90;;;;;;6996028;28;20011;-79
2022/05/24 03:35:45;;;;;;;2.03;0.65;;;17.80;99.90;;;;;;6997791;28;20482;-80
2022/05/24 03:39:08;;;;;;;4.40;0.82;;;17.70;99.90;;;;;;6981808;28;20040;-78
2022/05/24 03:42:30;;;;;;;2.33;0.70;;;17.70;99.90;;;;;;6997111;28;20052;-78
2022/05/24 03:46:02;;;;;;;2.80;0.80;;;17.70;99.90;;;;;;6998233;28;20045;-79
2022/05/24 03:49:24;;;;;;;1.63;0.65;;;17.70;99.90;;;;;;6997531;28;20052;-78
2022/05/24 03:52:46;;;;;;;2.42;0.77;;;17.70;99.90;;;;;;6997925;28;20445;-77
2022/05/24 03:56:08;;;;;;;2.83;0.60;;;17.70;99.90;;;;;;6998198;28;20505;-77
2022/05/24 03:59:31;;;;;;;3.60;0.90;;;17.70;99.90;;;;;;6996923;28;20122;-77
2022/05/24 04:02:55;;;;;;;;;;;17.50;99.90;;;;;;6998002;28;20045;-77
2022/05/24 04:06:18;;;;;;;2.35;0.60;;;17.50;99.90;;;;;;6997641;28;20293;-78
2022/05/24 04:09:40;;;;;;;4.45;1.55;;;17.60;99.90;;;;;;6982496;28;20056;-79
2022/05/24 04:13:03;;;;;;;7.13;1.48;;;17.60;99.90;;;;;;6997689;28;20052;-79
2022/05/24 04:16:25;;;;;;;2.75;1.05;;;17.70;99.90;;;;;;6997144;28;20061;-79
2022/05/24 04:19:49;;;;;;;3.07;0.80;;;17.70;99.90;;;;;;6997548;28;20498;-78
2022/05/24 04:23:14;;;;;;;3.35;1.13;;;17.80;99.90;;;;;;6997479;28;20055;-77
2022/05/24 04:26:36;;;;;;;2.47;0.80;;;17.80;99.90;;;;;;6994716;28;20719;-78
2022/05/24 04:29:58;;;;;;;3.78;1.10;;;17.90;99.90;;;;;;6996940;28;20044;-77
2022/05/24 04:33:21;;;;;;;3.90;1.00;;;17.90;99.90;;;;;;6997059;28;20044;-77
2022/05/24 04:36:44;;;;;;;3.83;0.90;;;17.90;99.90;;;;;;6998242;28;20048;-77
2022/05/24 04:40:09;;;;;;;4.70;1.00;;;17.90;99.90;;;;;;6998109;28;20048;-77
2022/05/24 04:43:30;;;;;;;2.45;1.00;;;17.90;99.90;;;;;;6998072;28;20063;-77
2022/05/24 04:47:08;;;;;;;2.45;0.98;;;17.80;99.90;;;;;;6998054;28;20475;-78
2022/05/24 04:50:30;;;;;;;2.47;0.90;;;17.90;99.90;;;;;;6998088;28;20052;-78
2022/05/24 04:53:53;;;;;;;3.72;1.50;;;17.90;99.90;;;;;;6997723;28;20067;-77
2022/05/24 04:57:16;;;;;;;2.50;1.23;;;18.00;99.90;;;;;;6998321;28;20049;-79
2022/05/24 05:00:38;;;;;;;2.83;0.95;;;17.90;99.90;;;;;;6997439;28;20044;-78
2022/05/24 05:04:00;;;;;;;3.95;1.20;;;18.00;99.90;;;;;;6997532;28;20223;-79
2022/05/24 05:07:22;;;;;;;3.13;1.00;;;18.00;99.90;;;;;;6997631;28;20059;-79
2022/05/24 05:10:46;;;;;;;4.22;1.27;;;18.00;99.90;;;;;;6997451;28;20044;-78
2022/05/24 05:14:09;;;;;;;3.08;1.15;;;18.10;99.90;;;;;;6997590;28;20405;-79
2022/05/24 05:17:32;;;;;;;2.78;1.05;;;18.10;99.90;;;;;;6997579;28;20048;-79
2022/05/24 05:20:54;;;;;;;4.13;1.10;;;18.10;99.90;;;;;;6997605;28;20052;-77
2022/05/24 05:24:16;;;;;;;3.30;1.00;;;18.10;99.90;;;;;;6996445;28;20049;-78
2022/05/24 05:27:40;;;;;;;2.83;1.00;;;18.10;99.90;;;;;;6997298;28;20440;-78
2022/05/24 05:31:22;;;;;;;2.83;1.00;;;18.20;99.90;;;;;;6997211;28;20052;-79
2022/05/24 05:34:45;;;;;;;4.20;1.23;;;18.20;99.90;;;;;;6995803;28;20056;-78
2022/05/24 05:38:07;;;;;;;5.10;1.17;;;18.20;99.90;;;;;;6997365;28;20048;-79
2022/05/24 05:41:32;;;;;;;2.85;0.90;;;18.20;99.90;;;;;;6996126;28;20048;-78
2022/05/24 05:44:55;;;;;;;2.65;1.00;;;18.20;99.90;;;;;;7002200;28;20044;-78
2022/05/24 05:48:17;;;;;;;4.18;1.02;;;18.30;99.90;;;;;;7002543;28;20049;-79
2022/05/24 05:51:40;;;;;;;2.25;0.90;;;18.30;99.90;;;;;;7002570;28;20048;-78
2022/05/24 05:55:02;;;;;;;2.75;1.48;;;18.30;99.90;;;;;;7002208;28;20049;-79
2022/05/24 05:58:24;;;;;;;3.90;0.90;;;18.40;99.90;;;;;;7002562;28;20061;-79
2022/05/24 06:01:48;;;;;;;2.90;1.45;;;18.40;99.90;;;;;;7005173;28;20064;-79
2022/05/24 06:05:11;;;;;;;3.80;0.93;;;18.50;99.90;;;;;;7003398;28;20071;-78
2022/05/24 06:08:33;;;;;;;4.90;1.00;;;18.60;99.90;;;;;;7002898;28;20049;-79
2022/05/24 06:11:55;;;;;;;3.22;0.93;;;18.60;99.90;;;;;;7002661;28;20513;-79
2022/05/24 06:15:19;;;;;;;5.75;1.20;;;18.60;99.90;;;;;;7002776;28;20091;-79
2022/05/24 06:18:43;;;;;;;5.13;1.33;;;18.60;99.90;;;;;;7002039;28;20095;-79
2022/05/24 06:22:06;;;;;;;2.47;1.10;;;18.60;99.90;;;;;;7001519;28;20056;-78
2022/05/24 06:25:30;;;;;;;;;;;18.60;99.90;;;;;;7001661;28;20056;-79
2022/05/24 06:28:52;;;;;;;7.20;1.20;;;18.70;99.90;;;;;;7002061;28;19928;-79
2022/05/24 06:32:14;;;;;;;5.80;1.10;;;18.70;99.90;;;;;;7004488;28;20135;-79
2022/05/24 06:35:40;;;;;;;4.40;0.90;;;18.80;99.90;;;;;;7001164;28;20052;-79
2022/05/24 06:39:03;;;;;;;4.50;1.10;;;18.80;99.90;;;;;;7001129;28;20049;-77
2022/05/24 06:42:25;;;;;;;4.40;1.30;;;18.80;99.90;;;;;;7000715;28;20044;-78
2022/05/24 06:45:47;;;;;;;4.50;1.10;;;18.80;99.90;;;;;;7000763;28;20052;-79
2022/05/24 06:49:11;;;;;;;4.78;1.13;;;18.80;99.90;;;;;;7000737;28;20044;-78
2022/05/24 06:52:34;;;;;;;4.60;1.40;;;18.90;99.90;;;;;;7000435;28;20060;-78
2022/05/24 06:55:56;;;;;;;4.25;1.13;;;18.90;99.90;;;;;;7000216;28;20048;-79
2022/05/24 07:03:02;;;;;;;5.07;1.15;;;19.20;99.70;;;;;;7000649;28;20060;-79
2022/05/24 07:06:25;;;;;;;5.55;1.20;;;19.10;97.20;;;;;;6999912;28;20060;-79
2022/05/24 07:09:48;;;;;;;3.53;1.00;;;19.10;96.80;;;;;;7000622;28;20056;-79
2022/05/24 07:13:17;;;;;;;6.13;1.10;;;19.10;96.90;;;;;;7000023;28;20049;-78
2022/05/24 07:16:39;;;;;;;6.13;1.00;;;19.20;96.80;;;;;;6998752;28;20045;-78
2022/05/24 07:20:01;;;;;;;3.85;0.88;;;19.10;96.90;;;;;;6982156;28;20178;-79
2022/05/24 07:23:25;;;;;;;3.03;1.25;;;19.00;95.30;;;;;;6998538;28;20045;-79
2022/05/24 07:26:48;;;;;;;3.97;0.80;;;18.90;94.80;;;;;;6999778;28;20105;-78
2022/05/24 07:30:12;;;;;;;4.28;0.80;;;18.80;95.30;;;;;;6999340;28;20047;-78
2022/05/24 07:33:34;;;;;;;3.28;0.90;;;18.80;94.90;;;;;;6999835;28;20045;-80
2022/05/24 07:36:57;;;;;;;3.50;1.13;;;18.70;95.00;;;;;;7000729;28;20055;-80
2022/05/24 07:47:40;;;;;;;3.63;0.50;;;17.10;97.40;;;;;;6999244;28;20056;-78
2022/05/24 07:51:02;;;;;;;4.50;0.53;;;16.20;99.90;;;;;;6999483;28;20402;-78
2022/05/24 07:54:24;;;;;;;5.85;0.60;;;16.00;99.90;;;;;;6998993;28;20803;-78
2022/05/24 07:57:47;;;;;;;3.22;0.65;;;15.90;99.90;;;;;;6999596;28;20075;-77
2022/05/24 08:01:11;;;;;;;2.97;0.60;;;15.80;99.90;;;;;;6999357;28;20052;-77
2022/05/24 08:04:34;;;;;;;3.42;0.60;;;15.70;99.90;;;;;;6998371;28;20405;-77
2022/05/24 08:07:57;;;;;;;5.43;0.60;;;15.70;99.90;;;;;;6998345;28;20049;-78
2022/05/24 08:11:19;;;;;;;1.70;0.40;;;15.70;99.90;;;;;;6998698;28;20076;-78
2022/05/24 08:14:41;;;;;;;1.50;0.60;;;15.80;99.90;;;;;;6998960;28;20056;-78
2022/05/24 08:18:05;;;;;;;2.63;0.40;;;15.80;99.90;;;;;;6998949;28;20430;-79
2022/05/24 08:21:28;;;;;;;1.90;0.50;;;15.90;99.90;;;;;;6998895;28;20047;-80
2022/05/24 08:24:50;;;;;;;5.43;0.80;;;16.10;99.90;;;;;;6998360;28;20055;-79
2022/05/24 08:28:12;;;;;;;4.60;0.50;;;16.40;99.90;;;;;;6997918;28;20051;-78
2022/05/24 08:31:34;;;;;;;4.68;0.88;;;16.40;99.90;;;;;;6998799;28;20052;-78
2022/05/24 08:34:58;;;;;;;6.75;0.70;;;16.60;99.90;;;;;;6998830;28;20048;-79
2022/05/24 08:38:21;;;;;;;1.05;0.40;;;16.90;99.90;;;;;;6998459;28;20494;-78
2022/05/24 08:41:54;;;;;;;;;;;17.00;99.80;;;;;;6998706;28;20078;-78
2022/05/24 08:49:05;;;;;;;1.13;0.30;;;17.10;98.00;;;;;;6998519;28;20084;-80
2022/05/24 08:52:36;;;;;;;1.40;0.30;;;17.20;97.30;;;;;;6998461;28;20182;-78
2022/05/24 08:55:59;;;;;;;0.60;0.30;;;17.20;96.40;;;;;;6997830;28;20044;-79
2022/05/24 08:59:28;;;;;;;1.58;0.30;;;17.10;95.10;;;;;;6997366;28;20056;-78
2022/05/24 09:02:51;;;;;;;2.10;0.50;;;17.20;94.30;;;;;;6998179;28;20494;-79
2022/05/24 09:06:29;;;;;;;1.65;0.30;;;17.20;94.70;;;;;;6998165;28;20052;-78
2022/05/24 09:10:02;;;;;;;1.65;0.40;;;17.30;94.40;;;;;;6997744;28;20064;-79
2022/05/24 09:14:09;;;;;;;1.27;0.25;;;17.30;93.60;;;;;;6997419;28;20048;-78
2022/05/24 09:17:46;;;;;;;2.13;0.43;;;17.40;93.30;;;;;;7000023;28;20041;-78
2022/05/24 09:21:20;;;;;;;4.32;0.40;;;17.50;92.00;;;;;;7003637;28;20410;-77
2022/05/24 09:24:49;;;;;;;1.17;0.30;;;17.50;91.80;;;;;;7003738;28;20049;-78
2022/05/24 09:28:13;;;;;;;0.82;0.40;;;17.60;92.00;;;;;;7003257;28;20059;-80
2022/05/24 09:32:00;;;;;;;1.00;0.30;;;17.70;91.90;;;;;;7001543;28;20048;-79
2022/05/24 09:35:26;;;;;;;0.85;0.40;;;17.50;91.40;;;;;;7003050;28;20498;-77
2022/05/24 09:38:49;;;;;;;1.88;0.22;;;17.30;90.70;;;;;;7001327;28;20052;-79
2022/05/24 09:42:15;;;;;;;0.75;0.40;;;17.40;90.60;;;;;;7001454;28;20509;-79
2022/05/24 09:45:47;;;;;;;0.98;0.40;;;17.40;91.70;;;;;;7003452;28;20049;-80
2022/05/24 09:49:24;;;;;;;1.23;0.30;;;17.60;92.80;;;;;;7002910;28;20479;-78
2022/05/24 09:53:09;;;;;;;0.93;0.50;;;17.80;90.30;;;;;;7002403;28;20307;-79
2022/05/24 09:56:33;;;;;;;2.10;0.60;;;17.70;90.90;;;;;;7002328;28;20059;-79
2022/05/24 10:00:08;;;;;;;2.63;0.60;;;17.90;90.50;;;;;;7002453;28;20509;-79
2022/05/24 10:03:35;;;;;;;2.38;0.45;;;17.70;86.70;;;;;;7002694;28;20056;-80
2022/05/24 10:07:01;;;;;;;1.83;0.43;;;17.70;87.00;;;;;;7002312;28;20398;-79
2022/05/24 10:10:30;;;;;;;1.75;0.40;;;17.60;86.10;;;;;;7002126;28;20441;-77
2022/05/24 10:14:07;;;;;;;0.68;0.35;;;17.70;86.60;;;;;;7002169;28;20513;-78
2022/05/24 10:17:40;;;;;;;0.80;0.30;;;17.70;87.60;;;;;;7001097;28;20049;-78
2022/05/24 10:21:16;;;;;;;1.10;0.38;;;17.70;88.40;;;;;;7001970;28;20395;-79
2022/05/24 10:24:56;;;;;;;1.33;0.40;;;18.00;90.40;;;;;;7001862;28;20051;-79
2022/05/24 10:28:36;;;;;;;2.70;0.40;;;18.00;88.10;;;;;;7000715;28;20048;-78
2022/05/24 10:32:03;;;;;;;2.85;0.40;;;18.10;89.10;;;;;;7001636;28;20509;-78
2022/05/24 10:39:48;;;;;;;1.33;0.45;;;18.30;84.50;;;;;;7002253;28;20083;-79
2022/05/24 10:43:25;;;;;;;1.00;0.40;;;18.30;83.30;;;;;;7001310;28;20056;-79
2022/05/24 10:47:00;;;;;;;1.20;0.57;;;18.30;83.30;;;;;;7001407;28;20056;-79
2022/05/24 10:50:30;;;;;;;0.65;0.32;;;18.40;84.40;;;;;;7001680;28;20516;-80
2022/05/24 10:53:55;;;;;;;1.98;0.50;;;18.30;81.70;;;;;;7001359;28;20071;-80
2022/05/24 10:57:25;;;;;;;1.20;0.47;;;18.30;76.70;;;;;;7000347;28;20538;-80
2022/05/24 11:01:09;;;;;;;2.15;0.30;;;18.40;80.20;;;;;;7000738;28;20052;-78
2022/05/24 11:04:42;;;;;;;2.05;0.40;;;18.50;80.50;;;;;;7001206;28;20051;-79
2022/05/24 11:08:28;;;;;;;1.50;0.50;;;18.80;76.10;;;;;;6999445;28;20048;-79
2022/05/24 11:11:57;;;;;;;1.88;0.30;;;19.00;75.00;;;;;;7000389;28;20406;-79
2022/05/24 11:15:28;;;;;;;2.40;0.38;;;19.10;75.90;;;;;;6999244;28;20040;-79
2022/05/24 11:18:50;;;;;;;1.45;0.40;;;19.30;73.80;;;;;;7000506;28;20040;-79
2022/05/24 11:22:25;;;;;;;1.52;0.50;;;19.10;74.20;;;;;;7000162;28;20067;-79
2022/05/24 11:25:53;;;;;;;1.42;0.30;;;19.20;73.20;;;;;;7000394;28;20052;-79
2022/05/24 11:29:20;;;;;;;1.65;0.57;;;19.10;73.40;;;;;;7000236;28;20041;-79
2022/05/24 11:32:49;;;;;;;1.45;0.50;;;19.10;70.80;;;;;;6999689;28;20056;-78
2022/05/24 11:36:42;;;;;;;1.05;0.40;;;19.00;69.60;;;;;;6999991;28;20056;-79
2022/05/24 11:40:31;;;;;;;3.38;0.40;;;19.00;68.20;;;;;;6998654;28;20047;-79
2022/05/24 11:44:05;;;;;;;3.05;0.40;;;19.30;70.30;;;;;;6999860;28;20505;-79
2022/05/24 11:48:17;;;;;;;2.83;0.50;;;19.20;67.60;;;;;;6999346;28;20055;-79
2022/05/24 11:51:43;;;;;;;1.88;0.43;;;19.40;70.10;;;;;;6999532;28;20064;-78
2022/05/24 11:55:06;;;;;;;2.05;0.50;;;19.70;66.20;;;;;;7005186;28;20098;-79
2022/05/24 11:59:01;;;;;;;0.98;0.38;;;19.90;64.60;;;;;;6998978;28;20052;-79
2022/05/24 12:11:07;;;;;;;1.58;0.60;;;20.20;66.30;;;;;;7050129;27;20578;-79
2022/05/24 12:14:39;;;;;;;1.48;0.40;;;20.20;64.20;;;;;;7022007;28;20059;-78
2022/05/24 12:18:18;;;;;;;1.75;0.47;;;20.20;64.60;;;;;;7022191;28;20044;-78
2022/05/24 12:22:06;;;;;;;3.25;0.60;;;19.90;63.10;;;;;;7021654;28;20406;-78
2022/05/24 12:25:58;;;;;;;1.65;0.47;;;20.00;63.60;;;;;;7021563;28;20047;-79
2022/05/24 12:29:20;;;;;;;;;;;20.00;64.60;;;;;;7022170;28;20416;-78
2022/05/24 12:32:42;;;;;;;1.60;0.50;;;20.10;63.30;;;;;;7021491;28;19970;-78
2022/05/24 12:36:25;;;;;;;2.20;0.55;;;20.30;62.70;;;;;;7021758;28;20044;-79
2022/05/24 12:40:06;;;;;;;4.07;0.60;;;20.40;61.50;;;;;;7021509;28;20405;-78
2022/05/24 12:43:30;;;;;;;1.35;0.50;;;20.50;60.60;;;;;;7021317;28;20508;-79
2022/05/24 12:46:57;;;;;;;1.75;0.40;;;20.60;61.40;;;;;;7021443;28;20045;-78
2022/05/24 12:50:36;;;;;;;2.00;0.40;;;20.80;60.70;;;;;;7003066;28;20134;-78
2022/05/24 12:54:12;;;;;;;0.95;0.50;;;21.10;60.00;;;;;;7019372;28;20044;-78
2022/05/24 12:57:39;;;;;;;1.35;0.52;;;21.30;59.20;;;;;;7021027;28;20379;-79
2022/05/24 13:01:20;;;;;;;3.10;0.60;;;21.20;58.50;;;;;;7021328;28;20045;-79
2022/05/24 13:04:43;;;;;;;3.13;0.47;;;21.10;59.10;;;;;;7021287;28;20071;-78
2022/05/24 13:08:06;;;;;;;2.28;0.50;;;21.30;57.50;;;;;;7020679;28;20059;-79
2022/05/24 13:11:29;;;;;;;1.20;0.38;;;21.40;57.80;;;;;;7020671;28;20048;-79
2022/05/24 13:14:57;;;;;;;2.25;0.40;;;21.50;59.10;;;;;;7020905;28;20064;-80
2022/05/24 13:18:25;;;;;;;1.73;0.60;;;21.60;62.00;;;;;;7020735;28;20106;-81
2022/05/24 13:21:53;;;;;;;4.63;0.90;;;21.50;62.40;;;;;;7002731;28;20048;-80
2022/05/24 13:25:20;;;;;;;2.03;0.45;;;22.20;62.90;;;;;;6984667;28;20549;-78
2022/05/24 13:28:45;;;;;;;5.20;0.50;;;22.50;61.00;;;;;;7001600;28;20071;-79
2022/05/24 13:35:49;;;;;;;1.38;0.50;;;22.60;62.00;;;;;;7001948;28;20057;-79
2022/05/24 13:39:18;;;;;;;2.00;0.65;;;23.00;61.90;;;;;;7001448;28;20060;-77
2022/05/24 13:42:54;;;;;;;1.95;0.60;;;23.20;60.30;;;;;;7001280;28;20135;-78
2022/05/24 13:46:19;;;;;;;1.95;0.60;;;23.20;61.70;;;;;;7001166;28;20493;-78
2022/05/24 13:49:44;;;;;;;2.85;0.60;;;23.10;61.30;;;;;;7001270;28;20052;-78
2022/05/24 13:53:31;;;;;;;3.35;0.60;;;23.70;58.10;;;;;;7001120;28;20048;-79
2022/05/24 13:56:53;;;;;;;1.67;0.50;;;24.10;56.90;;;;;;7000863;28;20044;-79
2022/05/24 14:00:28;;;;;;;2.38;0.60;;;24.10;56.30;;;;;;6982711;28;20181;-78
2022/05/24 14:03:54;;;;;;;1.40;0.52;;;23.50;54.20;;;;;;7002726;28;20060;-79
2022/05/24 14:07:19;;;;;;;2.13;0.50;;;23.20;55.30;;;;;;7001981;28;20414;-79
2022/05/24 14:10:44;;;;;;;1.73;0.55;;;23.00;54.80;;;;;;6983247;28;20131;-78
2022/05/24 14:14:06;;;;;;;1.10;0.45;;;23.00;54.30;;;;;;7000591;28;20118;-79
2022/05/24 14:17:28;;;;;;;1.08;0.40;;;23.10;55.30;;;;;;7000623;28;20048;-78
2022/05/24 14:20:50;;;;;;;1.88;0.47;;;23.40;54.80;;;;;;7000721;28;20052;-79
2022/05/24 14:24:16;;;;;;;1.15;0.43;;;23.80;53.20;;;;;;6999937;28;20045;-76
2022/05/24 14:27:40;;;;;;;2.83;0.45;;;24.60;52.70;;;;;;6974662;28;20433;-77
2022/05/24 14:31:02;;;;;;;2.28;0.60;;;25.30;51.50;;;;;;6981480;28;20049;-77
2022/05/24 14:34:25;;;;;;;0.52;0.30;;;25.70;52.50;;;;;;6985442;28;20041;-77
2022/05/24 14:37:47;;;;;;;1.38;0.40;;;25.80;49.90;;;;;;6992684;28;20045;-77
2022/05/24 14:41:21;;;;;;;2.75;0.70;;;26.30;48.60;;;;;;6975161;28;20486;-76
2022/05/24 14:44:45;;;;;;;1.60;0.60;;;26.10;47.00;;;;;;6973280;28;20060;-78
2022/05/24 14:48:08;;;;;;;1.58;0.50;;;26.20;48.00;;;;;;6978057;28;20075;-76
2022/05/24 14:51:33;;;;;;;2.28;0.40;;;26.00;47.60;;;;;;6989015;28;20041;-84
2022/05/24 14:54:56;;;;;;;1.80;0.47;;;25.40;47.30;;;;;;6969429;28;20057;-79
2022/05/24 14:58:18;;;;;;;2.70;0.60;;;25.10;48.20;;;;;;6976957;28;20139;-78
2022/05/24 15:01:41;;;;;;;2.33;0.40;;;25.00;48.70;;;;;;6994555;28;20048;-77
2022/05/24 15:05:05;;;;;;;0.82;0.40;;;24.80;48.50;;;;;;6983950;28;20501;-80
2022/05/24 15:15:48;;;;;;;3.65;0.60;;;24.40;49.80;;;;;;6992423;28;20060;-78
2022/05/24 15:19:11;;;;;;;2.13;0.60;;;24.50;54.10;;;;;;6986743;28;20041;-76
2022/05/24 15:22:35;;;;;;;3.35;0.80;;;24.60;53.00;;;;;;6979813;28;20075;-76
2022/05/24 15:26:01;;;;;;;2.67;0.70;;;24.80;53.80;;;;;;6997649;28;20494;-76
2022/05/24 15:29:24;;;;;;;3.17;0.50;;;25.60;52.60;;;;;;6975789;28;20056;-78
2022/05/24 15:32:46;;;;;;;1.63;0.60;;;25.30;51.00;;;;;;6999057;28;20049;-78
2022/05/24 15:36:11;;;;;;;3.42;0.90;;;24.90;52.30;;;;;;6986103;28;20040;-76
2022/05/24 15:39:33;;;;;;;2.47;0.60;;;24.80;53.50;;;;;;6977683;28;20089;-76
2022/05/24 15:42:57;;;;;;;1.73;0.50;;;25.00;54.20;;;;;;6991018;28;20051;-76
2022/05/24 15:46:19;;;;;;;4.38;0.70;;;24.80;54.20;;;;;;6970766;28;20045;-75
2022/05/24 15:49:43;;;;;;;2.13;0.70;;;25.00;54.00;;;;;;6970132;28;20509;-76
2022/05/24 15:53:08;;;;;;;1.55;0.50;;;24.40;53.40;;;;;;6973864;28;20064;-76
2022/05/24 15:56:31;;;;;;;1.65;0.50;;;24.30;54.40;;;;;;6970388;28;20053;-77
2022/05/24 15:59:55;;;;;;;2.97;0.70;;;24.60;54.60;;;;;;6971196;28;20487;-76
2022/05/24 16:03:17;;;;;;;2.65;0.80;;;24.40;54.60;;;;;;6970388;28;20387;-77
2022/05/24 16:10:22;;;;;;;2.28;0.50;;;24.10;51.80;;;;;;6996067;28;19924;-77
2022/05/24 16:13:44;;;;;;;2.00;0.60;;;23.80;53.20;;;;;;6996798;28;20056;-74
2022/05/24 16:17:08;;;;;;;1.08;0.50;;;23.50;52.40;;;;;;6984007;28;20048;-77
2022/05/24 16:20:30;;;;;;;2.17;0.60;;;23.40;54.20;;;;;;6983720;28;20486;-75
2022/05/24 16:23:55;;;;;;;2.17;0.50;;;23.30;53.30;;;;;;6998165;28;20433;-76
2022/05/24 16:27:18;;;;;;;4.40;2.05;;;23.00;54.00;;;;;;6995369;28;20044;-76
2022/05/24 16:30:42;;;;;;;1.98;0.73;;;22.70;57.70;;;;;;6995746;28;20048;-78
2022/05/24 16:34:04;;;;;;;1.83;0.57;;;22.60;57.80;;;;;;6986265;28;20500;-75
2022/05/24 16:37:27;;;;;;;;;;;22.40;58.30;;;;;;6972823;28;20049;-79
2022/05/24 16:40:49;;;;;;;4.82;0.90;;;22.20;58.60;;;;;;6970099;28;20386;-79
2022/05/24 16:44:12;;;;;;;3.78;0.70;;;22.00;59.30;;;;;;6970137;28;20494;-79
2022/05/24 16:47:34;;;;;;;3.95;0.80;;;21.80;60.00;;;;;;6987440;28;20402;-77
2022/05/24 16:50:56;;;;;;;5.18;0.70;;;21.90;60.10;;;;;;6996651;28;20528;-76
2022/05/24 17:01:40;;;;;;;2.88;0.65;;;23.60;57.80;;;;;;6992752;28;20499;-79
2022/05/24 17:05:02;;;;;;;2.72;0.88;;;23.50;58.50;;;;;;6994411;28;20045;-79
2022/05/24 17:08:24;;;;;;;1.63;0.60;;;23.40;57.00;;;;;;6997812;28;20448;-79
2022/05/24 17:11:46;;;;;;;2.70;0.75;;;22.90;59.80;;;;;;6977308;28;20053;-79
2022/05/24 17:15:11;;;;;;;2.42;0.70;;;22.40;59.90;;;;;;6974149;28;20052;-79
2022/05/24 17:18:34;;;;;;;2.47;0.63;;;22.30;59.80;;;;;;7000684;28;20197;-79
2022/05/24 17:21:56;;;;;;;2.60;0.77;;;22.00;59.60;;;;;;7001709;28;20048;-79
2022/05/24 17:25:20;;;;;;;2.70;0.93;;;21.90;59.40;;;;;;7001633;28;20067;-78
2022/05/24 17:28:42;;;;;;;1.40;0.52;;;21.70;59.70;;;;;;6974486;28;20048;-80
2022/05/24 17:32:11;;;;;;;2.70;0.90;;;21.70;60.70;;;;;;6973938;28;20040;-80
2022/05/24 17:35:39;;;;;;;3.70;1.40;;;21.30;61.20;;;;;;6989252;28;20048;-80
2022/05/24 17:39:01;;;;;;;7.35;3.92;;;21.40;60.80;;;;;;6974150;28;20506;-79
2022/05/24 17:42:23;;;;;;;9.25;3.88;;;21.40;61.00;;;;;;6974319;28;20052;-78
2022/05/24 17:45:46;;;;;;;2.85;0.80;;;21.40;61.80;;;;;;6977696;28;20052;-78
2022/05/24 17:49:09;;;;;;;4.63;0.90;;;21.30;61.80;;;;;;6975977;28;20045;-78
2022/05/24 17:52:33;;;;;;;3.53;0.70;;;21.20;60.90;;;;;;6975373;28;20410;-77
2022/05/24 17:55:55;;;;;;;1.92;0.70;;;21.20;61.90;;;;;;6973667;28;20410;-80
2022/05/24 17:59:17;;;;;;;3.95;0.65;;;21.10;60.90;;;;;;6976460;28;20064;-76
2022/05/24 18:02:41;;;;;;;3.13;0.68;;;21.00;61.60;;;;;;6986873;28;20049;-80
2022/05/24 18:06:03;;;;;;;4.72;0.90;;;20.90;63.00;;;;;;6987726;28;20044;-78
2022/05/24 18:09:26;;;;;;;2.65;0.70;;;20.90;63.10;;;;;;6984491;28;20055;-78
2022/05/24 18:12:50;;;;;;;1.95;0.75;;;20.90;62.50;;;;;;6973125;28;20044;-77
2022/05/24 18:16:12;;;;;;;2.72;0.70;;;20.80;62.90;;;;;;6993235;28;20049;-77
2022/05/24 18:19:36;;;;;;;2.97;0.80;;;20.70;62.80;;;;;;6974622;28;20095;-78
2022/05/24 18:23:05;;;;;;;2.75;0.80;;;20.60;62.90;;;;;;6984586;28;20040;-78
2022/05/24 18:33:57;;;;;;;2.95;0.95;;;20.60;64.40;;;;;;6964203;28;20414;-80
2022/05/24 18:37:23;;;;;;;2.95;0.73;;;20.60;64.50;;;;;;6971592;28;20072;-79
2022/05/24 18:40:45;;;;;;;3.10;0.80;;;20.50;64.80;;;;;;6996552;28;20069;-80
2022/05/24 18:44:09;;;;;;;5.10;0.80;;;20.50;64.40;;;;;;6993701;28;20067;-80
2022/05/24 18:47:31;;;;;;;4.38;0.80;;;20.40;65.20;;;;;;6997234;28;20414;-80
2022/05/24 18:50:53;;;;;;;3.65;0.90;;;20.30;65.00;;;;;;6996259;28;20063;-79
2022/05/24 18:54:16;;;;;;;1.98;0.60;;;20.30;64.90;;;;;;6961817;28;20060;-79
2022/05/24 18:57:38;;;;;;;2.88;0.70;;;20.30;65.30;;;;;;6968466;28;20044;-77
2022/05/24 19:01:05;;;;;;;3.20;1.00;;;20.30;64.90;;;;;;6991502;28;20097;-79
2022/05/24 19:04:27;;;;;;;2.75;0.90;;;20.30;64.80;;;;;;6974417;28;20396;-82
2022/05/24 19:07:50;;;;;;;1.85;0.70;;;20.10;66.10;;;;;;6970076;28;20045;-81
2022/05/24 19:11:12;;;;;;;;;;;20.10;66.10;;;;;;6970562;28;20056;-79